sensor_id;sensor_type;location;lat;lon;timestamp;P1;durP1;ratioP1;P2;durP2;ratioP2
77214;SDS011;66210;53.282;9.864;2023-06-19T00:01:39;12.30;;;6.88;;
77214;SDS011;66210;53.282;9.864;2023-06-19T00:04:06;6.82;;;5.57;;
77214;SDS011;66210;53.282;9.864;2023-06-19T00:06:33;7.07;;;5.50;;
77214;SDS011;66210;53.282;9.864;2023-06-19T00:09:00;7.68;;;6.53;;
77214;SDS011;66210;53.282;9.864;2023-06-19T00:11:26;8.48;;;6.45;;
77214;SDS011;66210;53.282;9.864;2023-06-19T00:13:53;8.98;;;6.13;;
77214;SDS011;66210;53.282;9.864;2023-06-19T00:16:20;7.88;;;5.93;;
77214;SDS011;66210;53.282;9.864;2023-06-19T00:18:47;7.47;;;5.80;;
77214;SDS011;66210;53.282;9.864;2023-06-19T00:21:14;6.40;;;5.63;;
77214;SDS011;66210;53.282;9.864;2023-06-19T00:23:40;8.25;;;6.38;;
77214;SDS011;66210;53.282;9.864;2023-06-19T00:26:07;6.82;;;5.80;;
77214;SDS011;66210;53.282;9.864;2023-06-19T00:28:34;9.45;;;6.45;;
77214;SDS011;66210;53.282;9.864;2023-06-19T00:31:05;10.55;;;6.45;;
77214;SDS011;66210;53.282;9.864;2023-06-19T00:33:33;6.82;;;5.25;;
77214;SDS011;66210;53.282;9.864;2023-06-19T00:36:00;9.38;;;6.68;;
77214;SDS011;66210;53.282;9.864;2023-06-19T00:38:27;9.13;;;6.47;;
77214;SDS011;66210;53.282;9.864;2023-06-19T00:40:54;8.50;;;6.38;;
77214;SDS011;66210;53.282;9.864;2023-06-19T00:43:21;7.75;;;5.95;;
77214;SDS011;66210;53.282;9.864;2023-06-19T00:45:48;7.03;;;5.82;;
77214;SDS011;66210;53.282;9.864;2023-06-19T00:48:15;8.25;;;5.93;;
77214;SDS011;66210;53.282;9.864;2023-06-19T00:50:42;8.52;;;6.68;;
77214;SDS011;66210;53.282;9.864;2023-06-19T00:53:09;12.13;;;8.02;;
77214;SDS011;66210;53.282;9.864;2023-06-19T00:55:36;11.25;;;7.10;;
77214;SDS011;66210;53.282;9.864;2023-06-19T00:58:03;9.60;;;7.78;;
77214;SDS011;66210;53.282;9.864;2023-06-19T01:00:31;8.55;;;6.20;;
77214;SDS011;66210;53.282;9.864;2023-06-19T01:02:58;8.57;;;6.93;;
77214;SDS011;66210;53.282;9.864;2023-06-19T01:05:26;11.57;;;7.13;;
77214;SDS011;66210;53.282;9.864;2023-06-19T01:07:59;7.70;;;6.10;;
77214;SDS011;66210;53.282;9.864;2023-06-19T01:10:36;7.57;;;6.10;;
77214;SDS011;66210;53.282;9.864;2023-06-19T01:13:10;7.40;;;6.30;;
77214;SDS011;66210;53.282;9.864;2023-06-19T01:15:43;10.63;;;7.43;;
77214;SDS011;66210;53.282;9.864;2023-06-19T01:18:10;7.63;;;6.30;;
77214;SDS011;66210;53.282;9.864;2023-06-19T01:20:38;7.25;;;6.47;;
77214;SDS011;66210;53.282;9.864;2023-06-19T01:23:09;9.13;;;7.05;;
77214;SDS011;66210;53.282;9.864;2023-06-19T01:25:37;9.98;;;6.60;;
77214;SDS011;66210;53.282;9.864;2023-06-19T01:28:05;8.27;;;6.68;;
77214;SDS011;66210;53.282;9.864;2023-06-19T01:30:36;9.02;;;6.35;;
77214;SDS011;66210;53.282;9.864;2023-06-19T01:35:44;9.85;;;6.70;;
77214;SDS011;66210;53.282;9.864;2023-06-19T01:38:14;8.48;;;6.72;;
77214;SDS011;66210;53.282;9.864;2023-06-19T01:40:41;9.52;;;7.32;;
77214;SDS011;66210;53.282;9.864;2023-06-19T01:43:08;9.60;;;6.85;;
77214;SDS011;66210;53.282;9.864;2023-06-19T01:45:36;9.90;;;6.40;;
77214;SDS011;66210;53.282;9.864;2023-06-19T01:48:03;8.65;;;6.85;;
77214;SDS011;66210;53.282;9.864;2023-06-19T01:50:30;8.48;;;6.63;;
77214;SDS011;66210;53.282;9.864;2023-06-19T01:52:57;11.23;;;6.85;;
77214;SDS011;66210;53.282;9.864;2023-06-19T01:55:24;7.78;;;6.18;;
77214;SDS011;66210;53.282;9.864;2023-06-19T01:57:51;10.25;;;7.32;;
77214;SDS011;66210;53.282;9.864;2023-06-19T02:00:18;10.00;;;7.15;;
77214;SDS011;66210;53.282;9.864;2023-06-19T02:02:45;8.00;;;6.88;;
77214;SDS011;66210;53.282;9.864;2023-06-19T02:05:12;9.73;;;6.95;;
77214;SDS011;66210;53.282;9.864;2023-06-19T02:07:40;9.93;;;7.63;;
77214;SDS011;66210;53.282;9.864;2023-06-19T02:10:07;9.38;;;7.05;;
77214;SDS011;66210;53.282;9.864;2023-06-19T02:12:35;8.02;;;6.63;;
77214;SDS011;66210;53.282;9.864;2023-06-19T02:15:02;9.57;;;6.50;;
77214;SDS011;66210;53.282;9.864;2023-06-19T02:17:29;8.15;;;6.78;;
77214;SDS011;66210;53.282;9.864;2023-06-19T02:19:55;8.38;;;6.20;;
77214;SDS011;66210;53.282;9.864;2023-06-19T02:22:23;9.05;;;7.25;;
77214;SDS011;66210;53.282;9.864;2023-06-19T02:24:50;9.85;;;7.40;;
77214;SDS011;66210;53.282;9.864;2023-06-19T02:27:16;10.52;;;7.07;;
77214;SDS011;66210;53.282;9.864;2023-06-19T02:29:43;9.55;;;7.53;;
77214;SDS011;66210;53.282;9.864;2023-06-19T02:32:10;9.20;;;7.07;;
77214;SDS011;66210;53.282;9.864;2023-06-19T02:34:37;9.38;;;7.35;;
77214;SDS011;66210;53.282;9.864;2023-06-19T02:37:04;11.10;;;7.50;;
77214;SDS011;66210;53.282;9.864;2023-06-19T02:39:31;11.13;;;7.28;;
77214;SDS011;66210;53.282;9.864;2023-06-19T02:41:58;10.30;;;7.57;;
77214;SDS011;66210;53.282;9.864;2023-06-19T02:44:26;9.07;;;6.75;;
77214;SDS011;66210;53.282;9.864;2023-06-19T02:46:52;9.35;;;7.20;;
77214;SDS011;66210;53.282;9.864;2023-06-19T02:49:19;10.48;;;7.63;;
77214;SDS011;66210;53.282;9.864;2023-06-19T02:51:46;10.20;;;7.70;;
77214;SDS011;66210;53.282;9.864;2023-06-19T02:54:13;9.25;;;6.82;;
77214;SDS011;66210;53.282;9.864;2023-06-19T02:56:40;9.98;;;7.22;;
77214;SDS011;66210;53.282;9.864;2023-06-19T02:59:06;8.05;;;7.03;;
77214;SDS011;66210;53.282;9.864;2023-06-19T03:01:33;8.20;;;6.07;;
77214;SDS011;66210;53.282;9.864;2023-06-19T03:04:00;14.25;;;7.45;;
77214;SDS011;66210;53.282;9.864;2023-06-19T03:06:27;12.00;;;7.78;;
77214;SDS011;66210;53.282;9.864;2023-06-19T03:08:54;8.35;;;7.05;;
77214;SDS011;66210;53.282;9.864;2023-06-19T03:11:21;12.32;;;8.30;;
77214;SDS011;66210;53.282;9.864;2023-06-19T03:13:50;8.52;;;7.25;;
77214;SDS011;66210;53.282;9.864;2023-06-19T03:16:18;8.80;;;7.60;;
77214;SDS011;66210;53.282;9.864;2023-06-19T03:18:45;8.75;;;7.68;;
77214;SDS011;66210;53.282;9.864;2023-06-19T03:21:15;9.23;;;7.05;;
77214;SDS011;66210;53.282;9.864;2023-06-19T03:23:42;11.55;;;8.63;;
77214;SDS011;66210;53.282;9.864;2023-06-19T03:26:09;8.75;;;6.50;;
77214;SDS011;66210;53.282;9.864;2023-06-19T03:28:37;9.68;;;8.02;;
77214;SDS011;66210;53.282;9.864;2023-06-19T03:31:04;10.45;;;7.38;;
77214;SDS011;66210;53.282;9.864;2023-06-19T03:33:31;12.70;;;7.90;;
77214;SDS011;66210;53.282;9.864;2023-06-19T03:35:58;12.25;;;7.22;;
77214;SDS011;66210;53.282;9.864;2023-06-19T03:38:25;8.77;;;7.53;;
77214;SDS011;66210;53.282;9.864;2023-06-19T03:40:52;9.95;;;8.15;;
77214;SDS011;66210;53.282;9.864;2023-06-19T03:43:19;12.73;;;8.10;;
77214;SDS011;66210;53.282;9.864;2023-06-19T03:45:45;8.18;;;6.75;;
77214;SDS011;66210;53.282;9.864;2023-06-19T03:48:19;8.88;;;6.95;;
77214;SDS011;66210;53.282;9.864;2023-06-19T03:50:46;9.20;;;7.05;;
77214;SDS011;66210;53.282;9.864;2023-06-19T03:53:13;9.85;;;7.60;;
77214;SDS011;66210;53.282;9.864;2023-06-19T03:55:41;11.02;;;7.35;;
77214;SDS011;66210;53.282;9.864;2023-06-19T03:58:07;8.57;;;7.03;;
77214;SDS011;66210;53.282;9.864;2023-06-19T04:00:34;11.10;;;7.82;;
77214;SDS011;66210;53.282;9.864;2023-06-19T04:03:01;8.15;;;7.15;;
77214;SDS011;66210;53.282;9.864;2023-06-19T04:05:28;10.02;;;7.65;;
77214;SDS011;66210;53.282;9.864;2023-06-19T04:07:57;9.30;;;7.60;;
77214;SDS011;66210;53.282;9.864;2023-06-19T04:10:24;10.32;;;7.32;;
77214;SDS011;66210;53.282;9.864;2023-06-19T04:12:51;10.18;;;7.30;;
77214;SDS011;66210;53.282;9.864;2023-06-19T04:15:17;9.80;;;7.38;;
77214;SDS011;66210;53.282;9.864;2023-06-19T04:17:44;8.68;;;7.07;;
77214;SDS011;66210;53.282;9.864;2023-06-19T04:20:12;10.43;;;7.53;;
77214;SDS011;66210;53.282;9.864;2023-06-19T04:22:39;10.07;;;6.93;;
77214;SDS011;66210;53.282;9.864;2023-06-19T04:25:07;11.25;;;8.40;;
77214;SDS011;66210;53.282;9.864;2023-06-19T04:27:35;12.10;;;7.97;;
77214;SDS011;66210;53.282;9.864;2023-06-19T04:30:02;8.50;;;6.75;;
77214;SDS011;66210;53.282;9.864;2023-06-19T04:32:31;11.77;;;7.60;;
77214;SDS011;66210;53.282;9.864;2023-06-19T04:34:58;8.80;;;6.97;;
77214;SDS011;66210;53.282;9.864;2023-06-19T04:37:25;11.35;;;7.45;;
77214;SDS011;66210;53.282;9.864;2023-06-19T04:39:52;11.13;;;7.72;;
77214;SDS011;66210;53.282;9.864;2023-06-19T04:42:19;7.50;;;6.25;;
77214;SDS011;66210;53.282;9.864;2023-06-19T04:44:46;7.50;;;6.35;;
77214;SDS011;66210;53.282;9.864;2023-06-19T04:47:14;8.25;;;6.40;;
77214;SDS011;66210;53.282;9.864;2023-06-19T04:49:45;11.23;;;7.78;;
77214;SDS011;66210;53.282;9.864;2023-06-19T04:52:12;12.05;;;8.77;;
77214;SDS011;66210;53.282;9.864;2023-06-19T04:54:39;8.38;;;7.00;;
77214;SDS011;66210;53.282;9.864;2023-06-19T04:57:06;9.07;;;6.97;;
77214;SDS011;66210;53.282;9.864;2023-06-19T04:59:33;11.35;;;8.82;;
77214;SDS011;66210;53.282;9.864;2023-06-19T05:02:00;10.02;;;7.15;;
77214;SDS011;66210;53.282;9.864;2023-06-19T05:04:27;14.60;;;8.05;;
77214;SDS011;66210;53.282;9.864;2023-06-19T05:06:54;12.25;;;8.18;;
77214;SDS011;66210;53.282;9.864;2023-06-19T05:09:20;9.27;;;7.03;;
77214;SDS011;66210;53.282;9.864;2023-06-19T05:11:47;13.38;;;7.93;;
77214;SDS011;66210;53.282;9.864;2023-06-19T05:14:14;10.95;;;7.80;;
77214;SDS011;66210;53.282;9.864;2023-06-19T05:16:41;14.02;;;8.45;;
77214;SDS011;66210;53.282;9.864;2023-06-19T05:19:08;11.23;;;7.82;;
77214;SDS011;66210;53.282;9.864;2023-06-19T05:21:35;10.27;;;8.00;;
77214;SDS011;66210;53.282;9.864;2023-06-19T05:24:02;11.68;;;7.38;;
77214;SDS011;66210;53.282;9.864;2023-06-19T05:26:29;11.90;;;7.43;;
77214;SDS011;66210;53.282;9.864;2023-06-19T05:28:56;9.10;;;7.95;;
77214;SDS011;66210;53.282;9.864;2023-06-19T05:31:23;9.63;;;7.35;;
77214;SDS011;66210;53.282;9.864;2023-06-19T05:33:50;10.93;;;6.82;;
77214;SDS011;66210;53.282;9.864;2023-06-19T05:36:16;9.85;;;7.57;;
77214;SDS011;66210;53.282;9.864;2023-06-19T05:38:43;15.20;;;8.60;;
77214;SDS011;66210;53.282;9.864;2023-06-19T05:41:10;15.65;;;8.25;;
77214;SDS011;66210;53.282;9.864;2023-06-19T05:43:38;8.93;;;7.97;;
77214;SDS011;66210;53.282;9.864;2023-06-19T05:46:05;10.60;;;8.07;;
77214;SDS011;66210;53.282;9.864;2023-06-19T05:48:32;10.50;;;8.23;;
77214;SDS011;66210;53.282;9.864;2023-06-19T05:50:58;10.60;;;7.82;;
77214;SDS011;66210;53.282;9.864;2023-06-19T05:53:25;9.35;;;7.55;;
77214;SDS011;66210;53.282;9.864;2023-06-19T05:55:52;12.07;;;8.98;;
77214;SDS011;66210;53.282;9.864;2023-06-19T05:58:19;13.60;;;8.07;;
77214;SDS011;66210;53.282;9.864;2023-06-19T06:00:47;10.20;;;8.10;;
77214;SDS011;66210;53.282;9.864;2023-06-19T06:03:14;9.07;;;7.50;;
77214;SDS011;66210;53.282;9.864;2023-06-19T06:05:41;10.30;;;9.20;;
77214;SDS011;66210;53.282;9.864;2023-06-19T06:08:09;9.75;;;7.53;;
77214;SDS011;66210;53.282;9.864;2023-06-19T06:10:36;9.20;;;7.97;;
77214;SDS011;66210;53.282;9.864;2023-06-19T06:13:03;12.63;;;8.65;;
77214;SDS011;66210;53.282;9.864;2023-06-19T06:15:30;9.95;;;8.35;;
77214;SDS011;66210;53.282;9.864;2023-06-19T06:17:57;8.68;;;7.78;;
77214;SDS011;66210;53.282;9.864;2023-06-19T06:20:24;10.23;;;7.88;;
77214;SDS011;66210;53.282;9.864;2023-06-19T06:22:51;12.48;;;9.50;;
77214;SDS011;66210;53.282;9.864;2023-06-19T06:25:18;12.02;;;9.18;;
77214;SDS011;66210;53.282;9.864;2023-06-19T06:27:45;14.38;;;9.15;;
77214;SDS011;66210;53.282;9.864;2023-06-19T06:30:11;11.40;;;8.63;;
77214;SDS011;66210;53.282;9.864;2023-06-19T06:32:39;11.65;;;9.00;;
77214;SDS011;66210;53.282;9.864;2023-06-19T06:35:06;12.52;;;9.23;;
77214;SDS011;66210;53.282;9.864;2023-06-19T06:37:33;9.85;;;8.52;;
77214;SDS011;66210;53.282;9.864;2023-06-19T06:39:59;12.88;;;8.80;;
77214;SDS011;66210;53.282;9.864;2023-06-19T06:42:26;10.73;;;9.05;;
77214;SDS011;66210;53.282;9.864;2023-06-19T06:44:53;10.43;;;8.27;;
77214;SDS011;66210;53.282;9.864;2023-06-19T06:47:20;12.18;;;8.30;;
77214;SDS011;66210;53.282;9.864;2023-06-19T06:49:47;10.65;;;8.45;;
77214;SDS011;66210;53.282;9.864;2023-06-19T06:52:13;12.10;;;8.48;;
77214;SDS011;66210;53.282;9.864;2023-06-19T06:54:40;11.77;;;8.85;;
77214;SDS011;66210;53.282;9.864;2023-06-19T06:57:07;12.07;;;8.30;;
77214;SDS011;66210;53.282;9.864;2023-06-19T06:59:34;11.70;;;7.13;;
77214;SDS011;66210;53.282;9.864;2023-06-19T07:02:01;11.43;;;8.52;;
77214;SDS011;66210;53.282;9.864;2023-06-19T07:04:28;12.73;;;8.70;;
77214;SDS011;66210;53.282;9.864;2023-06-19T07:06:55;10.50;;;8.15;;
77214;SDS011;66210;53.282;9.864;2023-06-19T07:09:21;10.48;;;8.95;;
77214;SDS011;66210;53.282;9.864;2023-06-19T07:11:48;11.02;;;8.00;;
77214;SDS011;66210;53.282;9.864;2023-06-19T07:14:19;13.68;;;8.75;;
77214;SDS011;66210;53.282;9.864;2023-06-19T07:16:46;10.70;;;7.68;;
77214;SDS011;66210;53.282;9.864;2023-06-19T07:19:12;10.48;;;7.53;;
77214;SDS011;66210;53.282;9.864;2023-06-19T07:21:40;8.75;;;7.80;;
77214;SDS011;66210;53.282;9.864;2023-06-19T07:24:07;11.25;;;9.20;;
77214;SDS011;66210;53.282;9.864;2023-06-19T07:26:35;12.35;;;8.57;;
77214;SDS011;66210;53.282;9.864;2023-06-19T07:29:01;13.68;;;7.75;;
77214;SDS011;66210;53.282;9.864;2023-06-19T07:31:28;14.63;;;9.07;;
77214;SDS011;66210;53.282;9.864;2023-06-19T07:33:55;13.18;;;9.35;;
77214;SDS011;66210;53.282;9.864;2023-06-19T07:36:22;18.40;;;9.32;;
77214;SDS011;66210;53.282;9.864;2023-06-19T07:38:49;10.98;;;8.60;;
